sensor_id;sensor_type;location;lat;lon;timestamp;temperature;humidity
20284;DHT22;10301;50.832;4.080;2024-03-08T00:00:06;6.10;99.90
20284;DHT22;10301;50.832;4.080;2024-03-08T00:02:45;6.10;99.90
20284;DHT22;10301;50.832;4.080;2024-03-08T00:05:11;6.00;99.90
20284;DHT22;10301;50.832;4.080;2024-03-08T00:07:38;6.00;99.90
20284;DHT22;10301;50.832;4.080;2024-03-08T00:10:05;6.00;99.90
20284;DHT22;10301;50.832;4.080;2024-03-08T00:12:31;6.00;99.90
20284;DHT22;10301;50.832;4.080;2024-03-08T00:14:57;6.00;99.90
20284;DHT22;10301;50.832;4.080;2024-03-08T00:17:23;5.90;99.90
20284;DHT22;10301;50.832;4.080;2024-03-08T00:19:49;5.80;99.90
20284;DHT22;10301;50.832;4.080;2024-03-08T00:22:18;5.80;99.90
20284;DHT22;10301;50.832;4.080;2024-03-08T00:24:43;5.80;99.90
20284;DHT22;10301;50.832;4.080;2024-03-08T00:27:09;5.80;99.90
20284;DHT22;10301;50.832;4.080;2024-03-08T00:29:36;5.70;99.90
20284;DHT22;10301;50.832;4.080;2024-03-08T00:32:04;5.50;99.90
20284;DHT22;10301;50.832;4.080;2024-03-08T00:34:30;5.60;99.90
20284;DHT22;10301;50.832;4.080;2024-03-08T00:36:57;5.60;99.90
20284;DHT22;10301;50.832;4.080;2024-03-08T00:39:23;5.70;99.90
20284;DHT22;10301;50.832;4.080;2024-03-08T00:41:49;5.70;99.90
20284;DHT22;10301;50.832;4.080;2024-03-08T00:44:15;5.90;99.90
20284;DHT22;10301;50.832;4.080;2024-03-08T00:46:40;6.00;99.90
20284;DHT22;10301;50.832;4.080;2024-03-08T00:49:06;5.90;99.90
20284;DHT22;10301;50.832;4.080;2024-03-08T00:51:32;5.80;99.90
20284;DHT22;10301;50.832;4.080;2024-03-08T00:53:58;5.80;99.90
20284;DHT22;10301;50.832;4.080;2024-03-08T00:56:23;5.80;99.90
20284;DHT22;10301;50.832;4.080;2024-03-08T00:58:50;5.70;99.90
20284;DHT22;10301;50.832;4.080;2024-03-08T01:01:18;5.60;99.90
20284;DHT22;10301;50.832;4.080;2024-03-08T01:03:44;5.50;99.90
20284;DHT22;10301;50.832;4.080;2024-03-08T01:06:10;5.40;99.90
20284;DHT22;10301;50.832;4.080;2024-03-08T01:08:37;5.40;99.90
20284;DHT22;10301;50.832;4.080;2024-03-08T01:11:06;5.40;99.90
20284;DHT22;10301;50.832;4.080;2024-03-08T01:13:32;5.30;99.90
20284;DHT22;10301;50.832;4.080;2024-03-08T01:15:58;5.30;99.90
20284;DHT22;10301;50.832;4.080;2024-03-08T01:18:23;5.40;99.90
20284;DHT22;10301;50.832;4.080;2024-03-08T01:20:49;5.50;99.90
20284;DHT22;10301;50.832;4.080;2024-03-08T01:23:15;5.50;99.90
20284;DHT22;10301;50.832;4.080;2024-03-08T01:25:40;5.40;99.90
20284;DHT22;10301;50.832;4.080;2024-03-08T01:28:07;5.30;99.90
20284;DHT22;10301;50.832;4.080;2024-03-08T01:30:32;5.20;99.90
20284;DHT22;10301;50.832;4.080;2024-03-08T01:33:00;5.20;99.90
20284;DHT22;10301;50.832;4.080;2024-03-08T01:35:26;5.00;99.90
20284;DHT22;10301;50.832;4.080;2024-03-08T01:37:52;4.90;99.90
20284;DHT22;10301;50.832;4.080;2024-03-08T01:40:18;5.00;99.90
20284;DHT22;10301;50.832;4.080;2024-03-08T01:42:44;5.00;99.90
20284;DHT22;10301;50.832;4.080;2024-03-08T01:45:10;5.10;99.90
20284;DHT22;10301;50.832;4.080;2024-03-08T01:47:37;5.10;99.90
20284;DHT22;10301;50.832;4.080;2024-03-08T01:50:03;5.10;99.90
20284;DHT22;10301;50.832;4.080;2024-03-08T01:52:32;5.10;99.90
20284;DHT22;10301;50.832;4.080;2024-03-08T01:55:02;5.10;99.90
20284;DHT22;10301;50.832;4.080;2024-03-08T01:57:29;5.10;99.90
20284;DHT22;10301;50.832;4.080;2024-03-08T01:59:56;5.00;99.90
20284;DHT22;10301;50.832;4.080;2024-03-08T02:02:22;4.90;99.90
20284;DHT22;10301;50.832;4.080;2024-03-08T02:04:48;4.90;99.90
20284;DHT22;10301;50.832;4.080;2024-03-08T02:07:14;4.90;99.90
20284;DHT22;10301;50.832;4.080;2024-03-08T02:09:40;4.90;99.90
20284;DHT22;10301;50.832;4.080;2024-03-08T02:12:06;5.00;99.90
20284;DHT22;10301;50.832;4.080;2024-03-08T02:14:33;5.00;99.90
20284;DHT22;10301;50.832;4.080;2024-03-08T02:17:02;5.00;99.90
20284;DHT22;10301;50.832;4.080;2024-03-08T02:19:28;4.90;99.90
20284;DHT22;10301;50.832;4.080;2024-03-08T02:21:53;4.90;99.90
20284;DHT22;10301;50.832;4.080;2024-03-08T02:24:19;4.90;99.90
20284;DHT22;10301;50.832;4.080;2024-03-08T02:26:45;4.90;99.90
20284;DHT22;10301;50.832;4.080;2024-03-08T02:29:11;4.70;99.90
20284;DHT22;10301;50.832;4.080;2024-03-08T02:31:37;4.70;99.90
20284;DHT22;10301;50.832;4.080;2024-03-08T02:34:04;4.70;99.90
20284;DHT22;10301;50.832;4.080;2024-03-08T02:36:30;4.90;99.90
20284;DHT22;10301;50.832;4.080;2024-03-08T02:39:01;4.80;99.90
20284;DHT22;10301;50.832;4.080;2024-03-08T02:41:27;4.80;99.90
20284;DHT22;10301;50.832;4.080;2024-03-08T02:43:53;4.70;99.90
20284;DHT22;10301;50.832;4.080;2024-03-08T02:46:20;4.80;99.90
20284;DHT22;10301;50.832;4.080;2024-03-08T02:48:46;4.70;99.90
20284;DHT22;10301;50.832;4.080;2024-03-08T02:51:12;4.70;99.90
20284;DHT22;10301;50.832;4.080;2024-03-08T02:53:39;4.70;99.90
20284;DHT22;10301;50.832;4.080;2024-03-08T02:56:04;4.70;99.90
20284;DHT22;10301;50.832;4.080;2024-03-08T02:58:34;4.70;99.90
20284;DHT22;10301;50.832;4.080;2024-03-08T03:00:59;4.60;99.90
20284;DHT22;10301;50.832;4.080;2024-03-08T03:03:25;4.60;99.90
20284;DHT22;10301;50.832;4.080;2024-03-08T03:05:52;4.70;99.90
20284;DHT22;10301;50.832;4.080;2024-03-08T03:08:21;4.60;99.90
20284;DHT22;10301;50.832;4.080;2024-03-08T03:10:47;4.60;99.90
20284;DHT22;10301;50.832;4.080;2024-03-08T03:13:13;4.50;99.90
20284;DHT22;10301;50.832;4.080;2024-03-08T03:15:39;4.60;99.90
20284;DHT22;10301;50.832;4.080;2024-03-08T03:18:07;4.40;99.90
20284;DHT22;10301;50.832;4.080;2024-03-08T03:20:33;4.40;99.90
20284;DHT22;10301;50.832;4.080;2024-03-08T03:23:08;4.40;99.90
20284;DHT22;10301;50.832;4.080;2024-03-08T03:25:35;4.40;99.90
20284;DHT22;10301;50.832;4.080;2024-03-08T03:28:01;4.30;99.90
20284;DHT22;10301;50.832;4.080;2024-03-08T03:30:27;4.30;99.90
20284;DHT22;10301;50.832;4.080;2024-03-08T03:33:01;4.20;99.90
20284;DHT22;10301;50.832;4.080;2024-03-08T03:35:28;4.10;99.90
20284;DHT22;10301;50.832;4.080;2024-03-08T03:37:54;4.10;99.90
20284;DHT22;10301;50.832;4.080;2024-03-08T03:40:39;4.10;99.90
20284;DHT22;10301;50.832;4.080;2024-03-08T03:43:08;4.20;99.90
20284;DHT22;10301;50.832;4.080;2024-03-08T03:45:35;4.30;99.90
20284;DHT22;10301;50.832;4.080;2024-03-08T03:48:05;4.30;99.90
20284;DHT22;10301;50.832;4.080;2024-03-08T03:50:38;4.20;99.90
20284;DHT22;10301;50.832;4.080;2024-03-08T03:53:04;4.10;99.90
20284;DHT22;10301;50.832;4.080;2024-03-08T03:55:33;4.10;99.90
20284;DHT22;10301;50.832;4.080;2024-03-08T03:57:58;4.20;99.90
20284;DHT22;10301;50.832;4.080;2024-03-08T04:00:26;4.10;99.90
20284;DHT22;10301;50.832;4.080;2024-03-08T04:02:53;4.10;99.90
20284;DHT22;10301;50.832;4.080;2024-03-08T04:05:18;4.20;99.90
20284;DHT22;10301;50.832;4.080;2024-03-08T04:07:44;4.10;99.90
20284;DHT22;10301;50.832;4.080;2024-03-08T04:10:11;4.10;99.90
20284;DHT22;10301;50.832;4.080;2024-03-08T04:12:37;4.20;99.90
20284;DHT22;10301;50.832;4.080;2024-03-08T04:15:04;4.20;99.90
20284;DHT22;10301;50.832;4.080;2024-03-08T04:17:33;4.20;99.90
20284;DHT22;10301;50.832;4.080;2024-03-08T04:20:03;4.10;99.90
20284;DHT22;10301;50.832;4.080;2024-03-08T04:22:35;3.90;99.90
20284;DHT22;10301;50.832;4.080;2024-03-08T04:25:01;3.90;99.90
20284;DHT22;10301;50.832;4.080;2024-03-08T04:27:27;3.90;99.90
20284;DHT22;10301;50.832;4.080;2024-03-08T04:29:53;4.00;99.90
20284;DHT22;10301;50.832;4.080;2024-03-08T04:32:18;3.90;99.90
20284;DHT22;10301;50.832;4.080;2024-03-08T04:34:44;3.90;99.90
20284;DHT22;10301;50.832;4.080;2024-03-08T04:37:10;4.00;99.90
20284;DHT22;10301;50.832;4.080;2024-03-08T04:39:38;3.90;99.90
20284;DHT22;10301;50.832;4.080;2024-03-08T04:42:05;3.80;99.90
20284;DHT22;10301;50.832;4.080;2024-03-08T04:44:36;3.90;99.90
20284;DHT22;10301;50.832;4.080;2024-03-08T04:47:03;4.00;99.90
20284;DHT22;10301;50.832;4.080;2024-03-08T04:49:32;3.90;99.90
20284;DHT22;10301;50.832;4.080;2024-03-08T04:51:57;3.90;99.90
20284;DHT22;10301;50.832;4.080;2024-03-08T04:54:23;4.00;99.90
20284;DHT22;10301;50.832;4.080;2024-03-08T04:56:49;4.00;99.90
20284;DHT22;10301;50.832;4.080;2024-03-08T04:59:15;4.00;99.90
20284;DHT22;10301;50.832;4.080;2024-03-08T05:01:40;3.80;99.90
20284;DHT22;10301;50.832;4.080;2024-03-08T05:04:06;3.80;99.90
20284;DHT22;10301;50.832;4.080;2024-03-08T05:06:32;4.00;99.90
20284;DHT22;10301;50.832;4.080;2024-03-08T05:08:59;4.00;99.90
20284;DHT22;10301;50.832;4.080;2024-03-08T05:11:24;4.00;99.90
20284;DHT22;10301;50.832;4.080;2024-03-08T05:13:50;3.90;99.90
20284;DHT22;10301;50.832;4.080;2024-03-08T05:16:16;4.00;99.90
20284;DHT22;10301;50.832;4.080;2024-03-08T05:18:42;3.90;99.90
20284;DHT22;10301;50.832;4.080;2024-03-08T05:21:07;3.80;99.90
20284;DHT22;10301;50.832;4.080;2024-03-08T05:23:34;3.80;99.90
20284;DHT22;10301;50.832;4.080;2024-03-08T05:26:00;3.80;99.90
20284;DHT22;10301;50.832;4.080;2024-03-08T05:28:26;3.90;99.90
20284;DHT22;10301;50.832;4.080;2024-03-08T05:30:52;3.90;99.90
20284;DHT22;10301;50.832;4.080;2024-03-08T05:33:18;3.90;99.90
20284;DHT22;10301;50.832;4.080;2024-03-08T05:35:44;3.80;99.90
20284;DHT22;10301;50.832;4.080;2024-03-08T05:38:10;3.90;99.90
20284;DHT22;10301;50.832;4.080;2024-03-08T05:40:38;3.90;99.90
20284;DHT22;10301;50.832;4.080;2024-03-08T05:43:04;3.90;99.90
20284;DHT22;10301;50.832;4.080;2024-03-08T05:45:30;3.90;99.90
20284;DHT22;10301;50.832;4.080;2024-03-08T05:47:56;3.80;99.90
20284;DHT22;10301;50.832;4.080;2024-03-08T05:50:22;3.80;99.90
20284;DHT22;10301;50.832;4.080;2024-03-08T05:52:47;3.70;99.90
20284;DHT22;10301;50.832;4.080;2024-03-08T05:55:13;3.80;99.90
20284;DHT22;10301;50.832;4.080;2024-03-08T05:57:43;3.60;99.90
20284;DHT22;10301;50.832;4.080;2024-03-08T06:00:10;3.70;99.90
20284;DHT22;10301;50.832;4.080;2024-03-08T06:02:41;3.60;99.90
20284;DHT22;10301;50.832;4.080;2024-03-08T06:05:10;3.50;99.90
20284;DHT22;10301;50.832;4.080;2024-03-08T06:07:37;3.60;99.90
20284;DHT22;10301;50.832;4.080;2024-03-08T06:10:07;3.70;99.90
20284;DHT22;10301;50.832;4.080;2024-03-08T06:12:35;3.80;99.90
20284;DHT22;10301;50.832;4.080;2024-03-08T06:15:06;3.70;99.90
20284;DHT22;10301;50.832;4.080;2024-03-08T06:17:32;4.00;99.90
20284;DHT22;10301;50.832;4.080;2024-03-08T06:19:57;3.90;99.90
20284;DHT22;10301;50.832;4.080;2024-03-08T06:22:23;3.70;99.90
20284;DHT22;10301;50.832;4.080;2024-03-08T06:24:49;3.70;99.90
20284;DHT22;10301;50.832;4.080;2024-03-08T06:27:15;3.60;99.90
20284;DHT22;10301;50.832;4.080;2024-03-08T06:29:42;3.50;99.90
20284;DHT22;10301;50.832;4.080;2024-03-08T06:32:08;3.60;99.90
20284;DHT22;10301;50.832;4.080;2024-03-08T06:34:34;3.60;99.90
20284;DHT22;10301;50.832;4.080;2024-03-08T06:37:02;3.60;99.90
20284;DHT22;10301;50.832;4.080;2024-03-08T06:39:28;3.70;99.90
20284;DHT22;10301;50.832;4.080;2024-03-08T06:41:57;3.60;99.90
20284;DHT22;10301;50.832;4.080;2024-03-08T06:44:23;3.70;99.90
20284;DHT22;10301;50.832;4.080;2024-03-08T06:46:49;3.70;99.90
20284;DHT22;10301;50.832;4.080;2024-03-08T06:49:14;3.70;99.90
20284;DHT22;10301;50.832;4.080;2024-03-08T06:51:41;3.60;99.90
20284;DHT22;10301;50.832;4.080;2024-03-08T06:54:07;3.70;99.90
20284;DHT22;10301;50.832;4.080;2024-03-08T06:56:37;3.70;99.90
20284;DHT22;10301;50.832;4.080;2024-03-08T06:59:03;3.90;99.90
20284;DHT22;10301;50.832;4.080;2024-03-08T07:01:29;4.00;99.90
20284;DHT22;10301;50.832;4.080;2024-03-08T07:03:59;3.80;99.90
20284;DHT22;10301;50.832;4.080;2024-03-08T07:06:27;3.80;99.90
20284;DHT22;10301;50.832;4.080;2024-03-08T07:08:54;3.80;99.90
20284;DHT22;10301;50.832;4.080;2024-03-08T07:11:20;3.80;99.90
20284;DHT22;10301;50.832;4.080;2024-03-08T07:13:46;3.80;99.90
20284;DHT22;10301;50.832;4.080;2024-03-08T07:16:11;4.00;99.90
20284;DHT22;10301;50.832;4.080;2024-03-08T07:18:37;4.10;99.90
20284;DHT22;10301;50.832;4.080;2024-03-08T07:21:11;4.20;99.90
20284;DHT22;10301;50.832;4.080;2024-03-08T07:23:37;4.30;99.90
20284;DHT22;10301;50.832;4.080;2024-03-08T07:26:16;4.20;99.90
20284;DHT22;10301;50.832;4.080;2024-03-08T07:28:42;4.20;99.90
20284;DHT22;10301;50.832;4.080;2024-03-08T07:31:07;4.30;99.90
20284;DHT22;10301;50.832;4.080;2024-03-08T07:33:42;4.40;99.90
20284;DHT22;10301;50.832;4.080;2024-03-08T07:36:08;4.40;99.90
20284;DHT22;10301;50.832;4.080;2024-03-08T07:38:34;4.40;99.90
20284;DHT22;10301;50.832;4.080;2024-03-08T07:41:00;4.50;99.90
20284;DHT22;10301;50.832;4.080;2024-03-08T07:43:26;4.50;99.90
20284;DHT22;10301;50.832;4.080;2024-03-08T07:45:52;4.50;99.90
20284;DHT22;10301;50.832;4.080;2024-03-08T07:48:19;4.50;99.90
20284;DHT22;10301;50.832;4.080;2024-03-08T07:50:45;4.60;99.90
20284;DHT22;10301;50.832;4.080;2024-03-08T07:53:11;4.70;99.90
20284;DHT22;10301;50.832;4.080;2024-03-08T07:55:37;4.80;99.90
20284;DHT22;10301;50.832;4.080;2024-03-08T07:58:05;4.80;99.90
20284;DHT22;10301;50.832;4.080;2024-03-08T08:00:31;4.90;99.90
20284;DHT22;10301;50.832;4.080;2024-03-08T08:02:57;5.00;99.90
20284;DHT22;10301;50.832;4.080;2024-03-08T08:05:23;5.00;99.90
20284;DHT22;10301;50.832;4.080;2024-03-08T08:07:48;5.10;99.90
20284;DHT22;10301;50.832;4.080;2024-03-08T08:10:15;5.20;99.90
20284;DHT22;10301;50.832;4.080;2024-03-08T08:12:50;5.20;99.90
20284;DHT22;10301;50.832;4.080;2024-03-08T08:15:17;5.30;99.90
20284;DHT22;10301;50.832;4.080;2024-03-08T08:17:46;5.40;99.90
20284;DHT22;10301;50.832;4.080;2024-03-08T08:20:13;5.40;99.90
20284;DHT22;10301;50.832;4.080;2024-03-08T08:22:39;5.50;99.90
20284;DHT22;10301;50.832;4.080;2024-03-08T08:25:09;5.60;99.90
20284;DHT22;10301;50.832;4.080;2024-03-08T08:27:38;5.70;99.90
20284;DHT22;10301;50.832;4.080;2024-03-08T08:30:10;5.80;99.90
20284;DHT22;10301;50.832;4.080;2024-03-08T08:32:37;5.90;99.90
20284;DHT22;10301;50.832;4.080;2024-03-08T08:35:05;5.90;99.90
20284;DHT22;10301;50.832;4.080;2024-03-08T08:37:34;5.80;99.90
20284;DHT22;10301;50.832;4.080;2024-03-08T08:40:02;5.90;99.90
20284;DHT22;10301;50.832;4.080;2024-03-08T08:42:34;5.90;99.90
20284;DHT22;10301;50.832;4.080;2024-03-08T08:44:59;6.10;99.90
20284;DHT22;10301;50.832;4.080;2024-03-08T08:47:26;6.00;99.90
20284;DHT22;10301;50.832;4.080;2024-03-08T08:49:52;6.20;99.90
20284;DHT22;10301;50.832;4.080;2024-03-08T08:52:19;6.10;99.90
20284;DHT22;10301;50.832;4.080;2024-03-08T08:54:45;6.20;99.90
20284;DHT22;10301;50.832;4.080;2024-03-08T08:57:11;6.20;99.90
20284;DHT22;10301;50.832;4.080;2024-03-08T08:59:37;6.30;99.90
20284;DHT22;10301;50.832;4.080;2024-03-08T09:02:06;6.30;99.90
20284;DHT22;10301;50.832;4.080;2024-03-08T09:04:32;6.40;99.90
20284;DHT22;10301;50.832;4.080;2024-03-08T09:06:58;6.50;99.90
20284;DHT22;10301;50.832;4.080;2024-03-08T09:09:24;6.50;99.90
20284;DHT22;10301;50.832;4.080;2024-03-08T09:11:51;6.70;99.90
20284;DHT22;10301;50.832;4.080;2024-03-08T09:14:17;6.70;99.90
20284;DHT22;10301;50.832;4.080;2024-03-08T09:16:42;6.70;99.90
20284;DHT22;10301;50.832;4.080;2024-03-08T09:19:08;6.70;99.90
20284;DHT22;10301;50.832;4.080;2024-03-08T09:21:36;6.80;99.90
20284;DHT22;10301;50.832;4.080;2024-03-08T09:24:02;6.80;99.90
20284;DHT22;10301;50.832;4.080;2024-03-08T09:26:28;6.90;99.90
20284;DHT22;10301;50.832;4.080;2024-03-08T09:28:54;6.90;99.90
20284;DHT22;10301;50.832;4.080;2024-03-08T09:31:22;6.90;99.90
20284;DHT22;10301;50.832;4.080;2024-03-08T09:33:48;7.00;99.90
20284;DHT22;10301;50.832;4.080;2024-03-08T09:36:14;7.10;99.90
20284;DHT22;10301;50.832;4.080;2024-03-08T09:38:40;7.30;99.90
20284;DHT22;10301;50.832;4.080;2024-03-08T09:41:06;7.40;99.90
20284;DHT22;10301;50.832;4.080;2024-03-08T09:43:32;7.60;99.90
20284;DHT22;10301;50.832;4.080;2024-03-08T09:45:58;7.70;99.90
20284;DHT22;10301;50.832;4.080;2024-03-08T09:48:25;7.70;99.90
20284;DHT22;10301;50.832;4.080;2024-03-08T09:50:51;7.60;99.90
20284;DHT22;10301;50.832;4.080;2024-03-08T09:53:17;7.60;99.90
20284;DHT22;10301;50.832;4.080;2024-03-08T09:55:45;7.40;99.90
20284;DHT22;10301;50.832;4.080;2024-03-08T09:58:15;7.40;99.90
20284;DHT22;10301;50.832;4.080;2024-03-08T10:00:47;7.50;99.90
20284;DHT22;10301;50.832;4.080;2024-03-08T10:03:13;7.60;99.90
20284;DHT22;10301;50.832;4.080;2024-03-08T10:05:41;7.80;99.90
20284;DHT22;10301;50.832;4.080;2024-03-08T10:08:07;7.80;99.90
20284;DHT22;10301;50.832;4.080;2024-03-08T10:10:34;7.70;99.90
20284;DHT22;10301;50.832;4.080;2024-03-08T10:13:00;7.80;99.90
20284;DHT22;10301;50.832;4.080;2024-03-08T10:15:29;7.90;99.90
20284;DHT22;10301;50.832;4.080;2024-03-08T10:17:58;8.10;99.90
20284;DHT22;10301;50.832;4.080;2024-03-08T10:20:24;8.00;99.90
20284;DHT22;10301;50.832;4.080;2024-03-08T10:22:49;8.10;99.90
20284;DHT22;10301;50.832;4.080;2024-03-08T10:25:16;8.20;99.90
20284;DHT22;10301;50.832;4.080;2024-03-08T10:27:43;8.20;99.90
20284;DHT22;10301;50.832;4.080;2024-03-08T10:30:14;8.30;99.90
20284;DHT22;10301;50.832;4.080;2024-03-08T10:32:41;8.40;99.90
20284;DHT22;10301;50.832;4.080;2024-03-08T10:35:07;8.40;99.90
20284;DHT22;10301;50.832;4.080;2024-03-08T10:37:38;8.60;99.90
20284;DHT22;10301;50.832;4.080;2024-03-08T10:40:10;8.60;99.90
20284;DHT22;10301;50.832;4.080;2024-03-08T10:42:53;8.60;99.90
20284;DHT22;10301;50.832;4.080;2024-03-08T10:45:42;8.80;99.90
20284;DHT22;10301;50.832;4.080;2024-03-08T10:50:38;9.10;99.90
20284;DHT22;10301;50.832;4.080;2024-03-08T10:53:06;9.20;99.90
20284;DHT22;10301;50.832;4.080;2024-03-08T10:55:33;9.20;99.90
20284;DHT22;10301;50.832;4.080;2024-03-08T10:57:59;9.30;99.90
20284;DHT22;10301;50.832;4.080;2024-03-08T11:00:26;9.10;99.90
20284;DHT22;10301;50.832;4.080;2024-03-08T11:02:53;9.10;99.90
20284;DHT22;10301;50.832;4.080;2024-03-08T11:05:51;9.20;99.90
20284;DHT22;10301;50.832;4.080;2024-03-08T11:08:18;9.20;99.90
20284;DHT22;10301;50.832;4.080;2024-03-08T11:10:51;9.30;99.90
20284;DHT22;10301;50.832;4.080;2024-03-08T11:13:39;9.30;99.90
20284;DHT22;10301;50.832;4.080;2024-03-08T11:16:36;9.20;99.90
20284;DHT22;10301;50.832;4.080;2024-03-08T11:21:36;9.40;99.90
20284;DHT22;10301;50.832;4.080;2024-03-08T11:24:14;9.40;99.90
20284;DHT22;10301;50.832;4.080;2024-03-08T11:26:42;9.50;99.90
20284;DHT22;10301;50.832;4.080;2024-03-08T11:34:36;9.60;99.90
20284;DHT22;10301;50.832;4.080;2024-03-08T11:37:15;9.70;99.90
20284;DHT22;10301;50.832;4.080;2024-03-08T11:39:54;9.80;99.90
20284;DHT22;10301;50.832;4.080;2024-03-08T11:42:25;9.90;99.90
20284;DHT22;10301;50.832;4.080;2024-03-08T11:44:53;10.00;99.90
20284;DHT22;10301;50.832;4.080;2024-03-08T11:47:20;10.10;99.90
20284;DHT22;10301;50.832;4.080;2024-03-08T11:49:46;10.10;99.90
20284;DHT22;10301;50.832;4.080;2024-03-08T11:52:17;10.10;99.90
20284;DHT22;10301;50.832;4.080;2024-03-08T11:54:51;10.00;99.90
20284;DHT22;10301;50.832;4.080;2024-03-08T11:57:20;10.00;99.90
20284;DHT22;10301;50.832;4.080;2024-03-08T11:59:54;10.00;99.90
20284;DHT22;10301;50.832;4.080;2024-03-08T12:02:20;10.10;99.90
20284;DHT22;10301;50.832;4.080;2024-03-08T12:04:46;10.20;99.90
20284;DHT22;10301;50.832;4.080;2024-03-08T12:07:12;10.30;99.90
20284;DHT22;10301;50.832;4.080;2024-03-08T12:09:40;10.50;99.90
20284;DHT22;10301;50.832;4.080;2024-03-08T12:12:07;10.60;99.90
20284;DHT22;10301;50.832;4.080;2024-03-08T12:14:33;10.70;99.90
20284;DHT22;10301;50.832;4.080;2024-03-08T12:16:59;10.60;99.90
20284;DHT22;10301;50.832;4.080;2024-03-08T12:19:27;10.50;99.90
20284;DHT22;10301;50.832;4.080;2024-03-08T12:21:54;10.50;99.90
20284;DHT22;10301;50.832;4.080;2024-03-08T12:24:20;10.60;99.90
20284;DHT22;10301;50.832;4.080;2024-03-08T12:26:47;10.80;99.90
20284;DHT22;10301;50.832;4.080;2024-03-08T12:29:27;10.90;99.90
20284;DHT22;10301;50.832;4.080;2024-03-08T12:31:59;11.10;99.90
20284;DHT22;10301;50.832;4.080;2024-03-08T12:34:27;11.00;99.90
20284;DHT22;10301;50.832;4.080;2024-03-08T12:36:54;11.10;99.90
20284;DHT22;10301;50.832;4.080;2024-03-08T12:39:21;11.10;99.90
20284;DHT22;10301;50.832;4.080;2024-03-08T12:41:53;11.30;99.90
20284;DHT22;10301;50.832;4.080;2024-03-08T12:44:20;11.20;99.90
20284;DHT22;10301;50.832;4.080;2024-03-08T12:46:47;11.20;99.90
20284;DHT22;10301;50.832;4.080;2024-03-08T12:49:14;11.40;99.90
20284;DHT22;10301;50.832;4.080;2024-03-08T12:51:43;11.40;99.90
20284;DHT22;10301;50.832;4.080;2024-03-08T12:54:09;11.30;99.90
20284;DHT22;10301;50.832;4.080;2024-03-08T12:56:36;11.30;99.90
20284;DHT22;10301;50.832;4.080;2024-03-08T12:59:04;11.30;99.90
20284;DHT22;10301;50.832;4.080;2024-03-08T13:01:31;11.40;99.90
20284;DHT22;10301;50.832;4.080;2024-03-08T13:04:00;11.50;99.90
20284;DHT22;10301;50.832;4.080;2024-03-08T13:06:28;11.60;99.90
20284;DHT22;10301;50.832;4.080;2024-03-08T13:08:55;11.80;99.90
20284;DHT22;10301;50.832;4.080;2024-03-08T13:11:21;11.70;99.90
20284;DHT22;10301;50.832;4.080;2024-03-08T13:13:48;11.70;99.90
20284;DHT22;10301;50.832;4.080;2024-03-08T13:16:15;11.70;99.90
20284;DHT22;10301;50.832;4.080;2024-03-08T13:18:43;11.70;99.90
20284;DHT22;10301;50.832;4.080;2024-03-08T13:21:09;11.70;99.90
20284;DHT22;10301;50.832;4.080;2024-03-08T13:23:36;11.70;99.90
20284;DHT22;10301;50.832;4.080;2024-03-08T13:26:12;11.70;99.90
20284;DHT22;10301;50.832;4.080;2024-03-08T13:28:47;11.70;99.90
20284;DHT22;10301;50.832;4.080;2024-03-08T13:31:14;11.80;99.90
20284;DHT22;10301;50.832;4.080;2024-03-08T13:33:40;11.90;99.90
20284;DHT22;10301;50.832;4.080;2024-03-08T13:36:10;11.90;99.90
20284;DHT22;10301;50.832;4.080;2024-03-08T13:38:49;11.90;99.90
20284;DHT22;10301;50.832;4.080;2024-03-08T13:41:16;12.00;99.90
20284;DHT22;10301;50.832;4.080;2024-03-08T13:43:46;12.10;99.90
20284;DHT22;10301;50.832;4.080;2024-03-08T13:46:12;11.90;99.90
20284;DHT22;10301;50.832;4.080;2024-03-08T13:48:37;11.80;99.90
20284;DHT22;10301;50.832;4.080;2024-03-08T13:51:07;11.90;99.90
20284;DHT22;10301;50.832;4.080;2024-03-08T13:53:33;11.90;99.90
20284;DHT22;10301;50.832;4.080;2024-03-08T13:56:02;12.00;99.90
20284;DHT22;10301;50.832;4.080;2024-03-08T13:58:28;12.20;99.90
20284;DHT22;10301;50.832;4.080;2024-03-08T14:00:54;12.40;99.90
20284;DHT22;10301;50.832;4.080;2024-03-08T14:03:21;12.40;99.90
20284;DHT22;10301;50.832;4.080;2024-03-08T14:05:46;12.40;99.90
20284;DHT22;10301;50.832;4.080;2024-03-08T14:08:12;12.30;99.90
20284;DHT22;10301;50.832;4.080;2024-03-08T14:10:39;12.20;99.90
20284;DHT22;10301;50.832;4.080;2024-03-08T14:13:05;12.20;99.90
20284;DHT22;10301;50.832;4.080;2024-03-08T14:15:32;12.40;99.90
20284;DHT22;10301;50.832;4.080;2024-03-08T14:17:58;12.40;99.90
20284;DHT22;10301;50.832;4.080;2024-03-08T14:20:24;12.50;99.90
20284;DHT22;10301;50.832;4.080;2024-03-08T14:22:56;12.50;99.90
20284;DHT22;10301;50.832;4.080;2024-03-08T14:25:25;12.40;99.90
20284;DHT22;10301;50.832;4.080;2024-03-08T14:27:52;12.40;99.90
20284;DHT22;10301;50.832;4.080;2024-03-08T14:30:23;12.50;99.90
20284;DHT22;10301;50.832;4.080;2024-03-08T14:33:02;12.70;99.90
20284;DHT22;10301;50.832;4.080;2024-03-08T14:35:28;12.70;99.90
20284;DHT22;10301;50.832;4.080;2024-03-08T14:37:58;12.60;99.90
20284;DHT22;10301;50.832;4.080;2024-03-08T14:40:24;12.60;99.90
20284;DHT22;10301;50.832;4.080;2024-03-08T14:42:51;12.60;99.90
20284;DHT22;10301;50.832;4.080;2024-03-08T14:45:17;12.90;99.90
20284;DHT22;10301;50.832;4.080;2024-03-08T14:47:48;12.90;99.90
20284;DHT22;10301;50.832;4.080;2024-03-08T14:50:21;13.10;99.90
20284;DHT22;10301;50.832;4.080;2024-03-08T14:52:51;13.00;99.90
20284;DHT22;10301;50.832;4.080;2024-03-08T14:55:20;12.90;99.90
20284;DHT22;10301;50.832;4.080;2024-03-08T14:57:50;12.90;99.90
20284;DHT22;10301;50.832;4.080;2024-03-08T15:00:18;13.00;99.90
20284;DHT22;10301;50.832;4.080;2024-03-08T15:02:55;12.90;99.90
20284;DHT22;10301;50.832;4.080;2024-03-08T15:05:22;12.70;99.90
20284;DHT22;10301;50.832;4.080;2024-03-08T15:07:54;12.70;99.90
20284;DHT22;10301;50.832;4.080;2024-03-08T15:10:20;12.70;99.90
20284;DHT22;10301;50.832;4.080;2024-03-08T15:12:50;12.80;99.90
20284;DHT22;10301;50.832;4.080;2024-03-08T15:15:20;12.80;99.90
20284;DHT22;10301;50.832;4.080;2024-03-08T15:17:48;12.80;99.90
20284;DHT22;10301;50.832;4.080;2024-03-08T15:20:14;12.90;99.90
20284;DHT22;10301;50.832;4.080;2024-03-08T15:22:49;12.90;99.90
20284;DHT22;10301;50.832;4.080;2024-03-08T15:25:15;12.90;99.90
20284;DHT22;10301;50.832;4.080;2024-03-08T15:27:54;13.00;99.90
20284;DHT22;10301;50.832;4.080;2024-03-08T15:30:23;13.00;99.90
20284;DHT22;10301;50.832;4.080;2024-03-08T15:32:52;13.10;99.90
20284;DHT22;10301;50.832;4.080;2024-03-08T15:35:26;13.10;99.90
20284;DHT22;10301;50.832;4.080;2024-03-08T15:37:54;13.10;99.90
20284;DHT22;10301;50.832;4.080;2024-03-08T15:40:23;13.10;99.90
20284;DHT22;10301;50.832;4.080;2024-03-08T15:45:20;13.10;99.90
20284;DHT22;10301;50.832;4.080;2024-03-08T15:47:46;13.10;99.90
20284;DHT22;10301;50.832;4.080;2024-03-08T15:50:12;13.10;99.90
20284;DHT22;10301;50.832;4.080;2024-03-08T15:52:38;13.10;99.90
20284;DHT22;10301;50.832;4.080;2024-03-08T15:55:07;13.10;99.90
20284;DHT22;10301;50.832;4.080;2024-03-08T15:57:33;13.10;99.90